Time;durP1;ratioP1;P1;durP2;ratioP2;P2;SDS_P1;SDS_P2;PMS_P1;PMS_P2;Temp;Humidity;BMP_temperature;BMP_pressure;BME280_temperature;BME280_humidity;BME280_pressure;Samples;Min_cycle;Max_cycle;Signal;HPM_P1;HPM_P2
2022/12/10 00:00:52;;;;;;;10.57;4.50;;;;;;;15.59;74.31;96579.69;5051246;28;20051;-75
2022/12/10 00:03:18;;;;;;;7.93;2.50;;;;;;;15.59;74.19;96579.69;5052349;28;20094;-75
2022/12/10 00:05:43;;;;;;;8.20;3.20;;;;;;;15.55;74.52;96577.41;5052213;28;20458;-75
2022/12/10 00:08:09;;;;;;;12.30;3.60;;;;;;;15.54;75.19;96592.75;5051085;28;20028;-75
2022/12/10 00:10:39;;;;;;;8.50;2.78;;;;;;;15.48;75.61;96584.41;5051136;28;20067;-75
2022/12/10 00:13:04;;;;;;;7.78;2.67;;;;;;;15.54;75.34;96584.66;5034100;28;20025;-74
2022/12/10 00:15:30;;;;;;;9.05;2.83;;;;;;;15.54;75.12;96597.28;5067582;28;20051;-75
2022/12/10 00:17:55;;;;;;;6.82;2.60;;;;;;;15.57;74.78;96589.75;5062994;28;20047;-76
2022/12/10 00:20:21;;;;;;;7.68;2.70;;;;;;;15.57;74.98;96592.44;5051805;28;20033;-75
2022/12/10 00:22:46;;;;;;;8.95;2.90;;;;;;;15.54;75.47;96586.50;5052100;28;20032;-75
2022/12/10 00:25:12;;;;;;;9.98;2.85;;;;;;;15.56;75.29;96585.38;5051948;28;20025;-75
2022/12/10 00:27:37;;;;;;;8.65;3.75;;;;;;;15.59;75.35;96579.69;5052112;28;20066;-74
2022/12/10 00:30:03;;;;;;;7.25;3.17;;;;;;;15.64;74.68;96582.75;5051691;28;20037;-74
2022/12/10 00:32:29;;;;;;;8.45;3.70;;;;;;;15.58;75.41;96583.38;5055819;28;20032;-74
2022/12/10 00:34:54;;;;;;;4.10;2.25;;;;;;;15.75;74.60;96584.41;5051583;28;20112;-76
2022/12/10 00:37:20;;;;;;;4.50;2.33;;;;;;;15.81;74.13;96591.06;5050504;28;20029;-75
2022/12/10 00:39:45;;;;;;;7.38;2.85;;;;;;;15.86;73.79;96586.91;5051669;28;20025;-75
2022/12/10 00:42:11;;;;;;;9.02;3.08;;;;;;;15.80;73.86;96571.31;5051674;28;20043;-74
2022/12/10 00:44:36;;;;;;;10.73;3.25;;;;;;;15.85;73.42;96574.41;5052015;28;20053;-75
2022/12/10 00:47:02;;;;;;;6.35;2.78;;;;;;;15.83;73.66;96576.41;5051807;28;20423;-75
2022/12/10 00:49:27;;;;;;;6.00;2.88;;;;;;;15.89;73.36;96565.03;5051288;28;20480;-74
2022/12/10 00:51:53;;;;;;;8.18;2.42;;;;;;;15.97;72.81;96577.72;5050232;28;20060;-75
2022/12/10 00:54:18;;;;;;;5.90;2.70;;;;;;;15.99;72.82;96583.84;5064032;28;20032;-75
2022/12/10 00:56:44;;;;;;;5.78;2.42;;;;;;;16.05;72.28;96583.25;5071345;28;20028;-75
2022/12/10 00:59:09;;;;;;;4.20;2.30;;;;;;;15.98;72.48;96576.75;5071120;28;20024;-73
2022/12/10 01:01:38;;;;;;;7.13;2.60;;;;;;;16.02;72.50;96576.31;5070197;28;20024;-75
2022/12/10 01:04:10;;;;;;;6.60;2.60;;;;;;;16.02;72.60;96570.91;5069885;28;20052;-75
2022/12/10 01:06:41;;;;;;;7.07;2.53;;;;;;;16.00;72.32;96567.50;5053223;28;20064;-74
2022/12/10 01:09:09;;;;;;;6.28;2.10;;;;;;;16.08;71.84;96570.28;5069785;28;20523;-74
2022/12/10 01:11:39;;;;;;;11.55;3.13;;;;;;;16.12;71.79;96571.66;5069918;28;20062;-74
2022/12/10 01:14:07;;;;;;;7.22;2.42;;;;;;;16.09;71.63;96568.41;5070195;28;20373;-74
2022/12/10 01:16:33;;;;;;;8.45;3.10;;;;;;;16.19;71.21;96582.69;5069508;28;20044;-69
2022/12/10 01:19:00;;;;;;;7.53;2.90;;;;;;;16.16;71.15;96566.81;5070927;28;20082;-69
2022/12/10 01:21:27;;;;;;;7.45;2.55;;;;;;;16.23;70.62;96568.75;5069699;28;20060;-69
2022/12/10 01:23:53;;;;;;;5.60;2.70;;;;;;;16.30;70.37;96571.69;5061624;28;20024;-69
2022/12/10 01:26:21;;;;;;;6.88;2.78;;;;;;;16.27;70.51;96569.31;5030309;28;20382;-69
2022/12/10 01:28:47;;;;;;;5.55;2.22;;;;;;;16.35;69.76;96565.81;5049677;28;20545;-69
2022/12/10 01:31:17;;;;;;;10.13;2.53;;;;;;;16.51;68.92;96569.53;5049641;28;20021;-69
2022/12/10 01:33:43;;;;;;;4.25;2.40;;;;;;;16.50;68.85;96559.72;5049807;28;20393;-68
2022/12/10 01:36:14;;;;;;;7.72;3.03;;;;;;;16.48;69.40;96567.13;5050794;28;20031;-68
2022/12/10 01:38:41;;;;;;;7.45;3.28;;;;;;;16.48;69.28;96564.44;5049800;28;20029;-69
2022/12/10 01:41:08;;;;;;;12.68;3.70;;;;;;;16.38;70.06;96566.38;5049610;28;20029;-72
2022/12/10 01:44:00;;;;;;;5.63;2.72;;;;;;;16.38;69.61;96560.13;5032587;28;20033;-73
2022/12/10 01:46:32;;;;;;;9.13;3.10;;;;;;;16.39;69.59;96568.06;5049498;28;20111;-74
2022/12/10 01:48:58;;;;;;;14.55;3.45;;;;;;;16.39;69.89;96559.13;5050820;28;20041;-73
2022/12/10 01:51:27;;;;;;;7.80;3.63;;;;;;;16.35;69.93;96549.63;5049890;28;20036;-74
2022/12/10 01:53:53;;;;;;;5.85;3.03;;;;;;;16.32;70.34;96548.09;5049379;28;20029;-74
2022/12/10 01:56:19;;;;;;;7.00;2.60;;;;;;;16.33;69.65;96546.25;5050628;28;20554;-74
2022/12/10 01:58:45;;;;;;;8.55;2.58;;;;;;;16.36;69.49;96544.09;5049319;28;20075;-73
2022/12/10 02:01:30;;;;;;;7.97;2.92;;;;;;;16.35;69.67;96550.47;5056350;28;20033;-73
2022/12/10 02:04:33;;;;;;;100.30;7.35;;;;;;;16.34;69.73;96543.38;5072727;28;20060;-74
2022/12/10 02:07:02;;;;;;;;;;;;;;;16.35;69.65;96550.47;5070151;28;20480;-73
2022/12/10 02:09:40;;;;;;;5.43;2.65;;;;;;;16.34;69.64;96553.31;5053318;28;19913;-73
2022/12/10 02:12:23;;;;;;;11.68;3.50;;;;;;;16.28;70.40;96554.78;5053237;28;20025;-73
2022/12/10 02:14:56;;;;;;;7.93;2.72;;;;;;;16.22;70.22;96550.00;5036343;28;20134;-74
2022/12/10 02:17:28;;;;;;;7.38;2.85;;;;;;;16.27;70.11;96540.44;5036593;28;20045;-74
2022/12/10 02:19:59;;;;;;;14.03;3.17;;;;;;;16.32;69.84;96537.28;5054300;28;20416;-74
2022/12/10 02:22:28;;;;;;;3.80;2.37;;;;;;;16.28;69.89;96533.19;5054425;28;20552;-73
2022/12/10 02:24:54;;;;;;;14.27;3.47;;;;;;;16.24;70.18;96529.97;5052930;28;20025;-74
2022/12/10 02:27:28;;;;;;;9.65;2.45;;;;;;;16.27;69.92;96526.13;5061263;28;20382;-74
2022/12/10 02:29:54;;;;;;;8.30;2.95;;;;;;;16.31;69.66;96526.63;5051842;28;20021;-74
2022/12/10 02:32:24;;;;;;;6.22;2.60;;;;;;;16.24;70.02;96521.03;5053190;28;20032;-74
2022/12/10 02:34:56;;;;;;;6.25;2.97;;;;;;;16.11;70.99;96517.88;5052773;28;20025;-74
2022/12/10 02:37:34;;;;;;;5.05;2.60;;;;;;;16.13;70.88;96513.16;5053003;28;20033;-74
2022/12/10 02:40:05;;;;;;;14.63;2.28;;;;;;;16.12;71.02;96514.16;5065049;28;20523;-75
2022/12/10 02:42:32;;;;;;;5.07;2.70;;;;;;;16.08;71.33;96520.88;5072694;28;20452;-75
2022/12/10 02:44:57;;;;;;;5.88;2.92;;;;;;;16.08;71.37;96505.56;5055942;28;20030;-74
2022/12/10 02:47:24;;;;;;;4.47;2.47;;;;;;;16.10;71.31;96497.28;5057384;28;20423;-75
2022/12/10 02:49:51;;;;;;;23.75;3.33;;;;;;;16.01;71.75;96506.31;5071583;28;20028;-75
2022/12/10 02:52:19;;;;;;;25.77;2.72;;;;;;;16.07;71.93;96533.53;5073950;28;20020;-74
2022/12/10 02:54:46;;;;;;;8.75;3.35;;;;;;;16.04;72.52;96523.03;5072376;28;20082;-74
2022/12/10 02:57:28;;;;;;;11.70;3.17;;;;;;;15.99;72.89;96528.06;5067179;28;20017;-75
2022/12/10 03:00:00;;;;;;;82.78;5.90;;;;;;;15.95;73.04;96513.16;5063426;28;20146;-75
2022/12/10 03:03:07;;;;;;;5.60;2.57;;;;;;;15.83;73.67;96527.03;5072430;28;20470;-75
2022/12/10 03:05:41;;;;;;;13.80;2.35;;;;;;;15.91;73.12;96543.28;5015089;28;20051;-74
2022/12/10 03:08:23;;;;;;;9.35;2.72;;;;;;;15.93;72.97;96523.28;5065689;28;20039;-74
2022/12/10 03:11:02;;;;;;;30.48;2.53;;;;;;;16.08;71.64;96531.69;5072257;28;20460;-74
2022/12/10 03:13:32;;;;;;;21.65;2.92;;;;;;;16.06;72.03;96534.50;5071788;28;20036;-74
2022/12/10 03:15:59;;;;;;;7.20;2.70;;;;;;;16.04;71.86;96527.56;5069976;28;20036;-74
2022/12/10 03:18:25;;;;;;;15.93;2.85;;;;;;;16.09;71.72;96534.19;5058550;28;20512;-75
2022/12/10 03:20:52;;;;;;;8.40;2.20;;;;;;;16.06;71.74;96526.41;5061939;28;20029;-75
2022/12/10 03:23:19;;;;;;;4.85;2.60;;;;;;;16.05;71.82;96518.50;5052152;28;20048;-75
2022/12/10 03:25:47;;;;;;;14.38;2.65;;;;;;;15.99;71.91;96516.41;5051991;28;20028;-74
2022/12/10 03:28:13;;;;;;;7.38;2.70;;;;;;;16.15;71.64;96527.38;5051805;28;20041;-74
2022/12/10 03:30:39;;;;;;;5.55;2.20;;;;;;;16.16;71.10;96529.03;5035315;28;20492;-74
2022/12/10 03:33:05;;;;;;;5.75;2.28;;;;;;;16.18;71.25;96524.38;5052851;28;20052;-74
2022/12/10 03:35:30;;;;;;;5.13;1.58;;;;;;;16.22;70.97;96518.47;5051897;28;20056;-75
2022/12/10 03:37:56;;;;;;;5.15;2.83;;;;;;;16.23;71.50;96519.34;5035296;28;20052;-75
2022/12/10 03:40:23;;;;;;;81.68;6.03;;;;;;;16.23;71.34;96511.25;5052814;28;20025;-74
2022/12/10 03:42:49;;;;;;;4.75;2.13;;;;;;;16.22;71.73;96510.38;5051889;28;20021;-74
2022/12/10 03:45:14;;;;;;;10.82;2.90;;;;;;;16.13;72.17;96515.88;5034972;28;20480;-74
2022/12/10 03:47:40;;;;;;;8.45;3.10;;;;;;;16.12;72.63;96514.16;5052961;28;20104;-75
2022/12/10 03:50:07;;;;;;;8.43;3.38;;;;;;;16.12;72.88;96512.31;5052462;28;20028;-73
2022/12/10 03:52:32;;;;;;;5.60;2.53;;;;;;;16.06;73.30;96514.78;5052718;28;20492;-75
2022/12/10 03:54:58;;;;;;;5.25;2.70;;;;;;;16.04;73.55;96508.69;5051304;28;20074;-74
2022/12/10 03:57:23;;;;;;;10.60;2.83;;;;;;;16.06;74.21;96515.63;5051447;28;20396;-74
2022/12/10 03:59:49;;;;;;;10.95;2.30;;;;;;;16.02;74.53;96511.56;5060430;28;20395;-74
2022/12/10 04:02:15;;;;;;;29.83;4.10;;;;;;;16.13;75.07;96526.66;5071253;28;20060;-74
2022/12/10 04:04:40;;;;;;;5.82;2.92;;;;;;;16.04;76.07;96514.09;5071371;28;20028;-75
2022/12/10 04:07:06;;;;;;;7.43;2.80;;;;;;;15.97;76.57;96516.56;5068874;28;20028;-74
2022/12/10 04:09:31;;;;;;;10.40;1.90;;;;;;;15.89;77.18;96510.22;5052492;28;20369;-74
2022/12/10 04:11:58;;;;;;;17.48;2.58;;;;;;;15.90;77.68;96528.13;5052353;28;20129;-74
2022/12/10 04:17:08;;;;;;;4.90;2.38;;;;;;;15.78;77.90;96527.47;5052296;28;20433;-73
2022/12/10 04:19:34;;;;;;;12.63;3.08;;;;;;;15.80;77.62;96532.72;5050892;28;20021;-74
2022/12/10 04:27:30;;;;;;;30.02;2.35;;;;;;;15.82;77.32;96549.59;5070652;28;20098;-74
2022/12/10 04:29:57;;;;;;;3.45;2.10;;;;;;;15.66;77.86;96548.41;5070516;28;20504;-75
2022/12/10 04:32:23;;;;;;;8.13;2.28;;;;;;;15.77;77.26;96558.16;5050681;28;20025;-73
2022/12/10 04:34:49;;;;;;;4.38;2.17;;;;;;;15.84;76.96;96555.69;5051838;28;20100;-75
2022/12/10 04:37:15;;;;;;;5.45;2.40;;;;;;;15.81;77.19;96567.59;5050828;28;20075;-75
2022/12/10 04:39:41;;;;;;;7.90;2.22;;;;;;;15.81;76.99;96562.22;5050543;28;20408;-75
2022/12/10 04:42:07;;;;;;;6.07;2.78;;;;;;;15.85;77.05;96565.47;5058827;28;20025;-75
2022/12/10 04:44:32;;;;;;;5.10;2.50;;;;;;;15.82;77.40;96569.31;5050322;28;20036;-75
2022/12/10 04:46:58;;;;;;;6.05;2.35;;;;;;;15.84;77.69;96566.47;5067101;28;20119;-76
2022/12/10 04:49:24;;;;;;;6.35;2.45;;;;;;;15.84;77.84;96582.66;5071281;28;20483;-73
2022/12/10 04:51:49;;;;;;;11.60;2.33;;;;;;;15.74;78.21;96574.63;5070640;28;20055;-74
2022/12/10 04:54:15;;;;;;;9.30;3.78;;;;;;;15.76;79.21;96578.00;5071224;28;20036;-75
2022/12/10 04:56:41;;;;;;;15.30;4.43;;;;;;;15.79;79.23;96568.75;5069919;28;20020;-74
2022/12/10 04:59:06;;;;;;;7.50;3.40;;;;;;;15.73;79.22;96571.06;5071390;28;20016;-74
2022/12/10 05:01:32;;;;;;;8.35;2.72;;;;;;;15.78;79.01;96567.91;5070449;28;20043;-75
2022/12/10 05:04:00;;;;;;;7.25;2.20;;;;;;;15.84;78.07;96571.88;5070028;28;20111;-75
2022/12/10 05:06:26;;;;;;;4.57;2.83;;;;;;;15.89;78.28;96574.97;5053315;28;20028;-74
2022/12/10 05:08:52;;;;;;;11.27;2.50;;;;;;;15.89;77.50;96586.59;5070964;28;20404;-74
2022/12/10 05:11:20;;;;;;;8.45;2.83;;;;;;;16.09;76.22;96576.50;5071137;28;20016;-74
2022/12/10 05:13:46;;;;;;;7.93;2.78;;;;;;;16.06;76.15;96572.28;5063882;28;20032;-75
2022/12/10 05:16:14;;;;;;;6.63;2.03;;;;;;;16.04;76.26;96568.03;5049791;28;20507;-75
2022/12/10 05:18:40;;;;;;;8.20;2.40;;;;;;;15.99;76.40;96557.72;5050146;28;20024;-75
2022/12/10 05:21:10;;;;;;;5.95;2.25;;;;;;;16.02;76.32;96564.66;5050826;28;20032;-75
2022/12/10 05:23:37;;;;;;;32.15;3.67;;;;;;;16.03;76.77;96567.19;5051104;28;20017;-75
2022/12/10 05:26:05;;;;;;;65.22;4.18;;;;;;;16.06;76.67;96576.81;5049708;28;20048;-75
2022/12/10 05:28:34;;;;;;;50.75;4.07;;;;;;;16.11;76.28;96575.38;5049824;28;20027;-75
2022/12/10 05:30:59;;;;;;;5.57;2.97;;;;;;;16.01;77.17;96554.84;5033066;28;20392;-74
2022/12/10 05:33:25;;;;;;;91.30;5.70;;;;;;;16.02;77.26;96554.72;5056452;28;20033;-74
2022/12/10 05:35:52;;;;;;;7.82;2.80;;;;;;;16.00;77.65;96558.53;5049575;28;20052;-75
2022/12/10 05:38:18;;;;;;;9.18;2.75;;;;;;;15.98;77.99;96558.72;5050279;28;20040;-74
2022/12/10 05:40:43;;;;;;;3.90;3.00;;;;;;;15.95;78.02;96555.47;5032918;28;20025;-74
2022/12/10 05:43:09;;;;;;;6.05;2.70;;;;;;;16.04;77.92;96568.03;5050517;28;20050;-74
2022/12/10 05:45:35;;;;;;;7.90;3.60;;;;;;;16.11;78.02;96569.13;5032641;28;20476;-75
2022/12/10 05:48:00;;;;;;;18.10;2.70;;;;;;;16.10;77.21;96567.44;5050771;28;20036;-74
2022/12/10 05:50:26;;;;;;;5.13;3.28;;;;;;;16.03;78.13;96571.72;5049514;28;20032;-74
2022/12/10 05:52:52;;;;;;;13.75;2.67;;;;;;;16.05;76.98;96548.16;5049440;28;20040;-74
2022/12/10 05:55:18;;;;;;;10.57;3.45;;;;;;;16.13;76.82;96567.13;5058637;28;20056;-75
2022/12/10 05:57:43;;;;;;;6.28;2.42;;;;;;;16.14;76.68;96552.66;5052873;28;20113;-75
2022/12/10 06:00:10;;;;;;;10.55;3.88;;;;;;;16.09;77.27;96571.13;5070748;28;20025;-74
2022/12/10 06:02:35;;;;;;;10.52;4.05;;;;;;;16.10;77.23;96556.63;5070539;28;20498;-75
2022/12/10 06:05:01;;;;;;;20.63;3.55;;;;;;;16.12;77.28;96557.31;5068428;28;20029;-75
2022/12/10 06:07:26;;;;;;;6.53;3.10;;;;;;;16.10;77.65;96557.50;5055187;28;20092;-75
2022/12/10 06:09:52;;;;;;;4.13;2.10;;;;;;;16.14;77.23;96547.25;5069548;28;20021;-75
2022/12/10 06:12:17;;;;;;;7.75;2.60;;;;;;;16.04;78.46;96559.94;5069048;28;20465;-75
2022/12/10 06:14:43;;;;;;;6.38;3.83;;;;;;;15.97;78.95;96567.78;5052303;28;20024;-75
2022/12/10 06:17:08;;;;;;;9.60;2.95;;;;;;;16.01;78.78;96576.44;5053624;28;20471;-74
2022/12/10 06:19:34;;;;;;;6.15;3.10;;;;;;;16.05;78.54;96585.94;5069488;28;20059;-75
2022/12/10 06:22:00;;;;;;;7.82;3.88;;;;;;;15.94;79.03;96578.91;5069312;28;20024;-75
2022/12/10 06:24:25;;;;;;;8.60;4.57;;;;;;;15.90;79.68;96587.47;5062066;28;20039;-75
2022/12/10 06:26:51;;;;;;;5.82;2.70;;;;;;;15.92;79.45;96599.78;5070535;28;20399;-74
2022/12/10 06:29:17;;;;;;;5.97;2.50;;;;;;;15.94;79.28;96586.13;5069939;28;20017;-74
2022/12/10 06:31:43;;;;;;;4.57;2.22;;;;;;;15.97;79.05;96586.69;5069130;28;20048;-75
2022/12/10 06:34:09;;;;;;;3.60;2.20;;;;;;;15.96;79.24;96581.44;5034608;28;20071;-75
2022/12/10 06:36:34;;;;;;;8.65;3.42;;;;;;;15.88;79.90;96592.13;5049137;28;20400;-74
2022/12/10 06:39:00;;;;;;;8.35;4.10;;;;;;;15.91;80.27;96591.81;5050132;28;20017;-75
2022/12/10 06:41:25;;;;;;;6.82;3.28;;;;;;;15.85;80.13;96589.72;5032316;28;20056;-74
2022/12/10 06:43:51;;;;;;;6.38;3.38;;;;;;;15.87;80.14;96582.38;5050082;28;20032;-75
2022/12/10 06:46:19;;;;;;;8.52;3.15;;;;;;;15.92;79.62;96585.44;5068551;28;20023;-74
2022/12/10 06:48:44;;;;;;;5.45;3.17;;;;;;;16.01;78.54;96582.69;5070119;28;20024;-75
2022/12/10 06:51:11;;;;;;;10.30;4.30;;;;;;;16.05;78.55;96583.25;5064644;28;20032;-74
2022/12/10 06:53:37;;;;;;;8.95;3.45;;;;;;;16.00;78.63;96574.72;5065266;28;20016;-74
2022/12/10 06:56:05;;;;;;;3.78;2.50;;;;;;;16.05;78.35;96575.16;5066037;28;20454;-74
2022/12/10 06:58:32;;;;;;;5.38;2.85;;;;;;;16.02;78.67;96581.69;5056712;28;20040;-75
2022/12/10 07:01:05;;;;;;;8.65;3.17;;;;;;;16.11;78.31;96579.94;5072365;28;20105;-75
2022/12/10 07:03:31;;;;;;;9.00;4.10;;;;;;;16.13;78.22;96586.00;5071939;28;20032;-74
2022/12/10 07:05:58;;;;;;;7.90;2.40;;;;;;;16.16;77.80;96599.19;5072235;28;20043;-74
2022/12/10 07:08:23;;;;;;;6.88;3.58;;;;;;;16.09;78.68;96604.34;5064241;28;20515;-74
2022/12/10 07:10:49;;;;;;;7.70;3.13;;;;;;;16.19;78.19;96606.97;5053308;28;20037;-74
2022/12/10 07:13:14;;;;;;;10.95;3.63;;;;;;;16.10;78.61;96594.41;5052935;28;20035;-74
2022/12/10 07:15:40;;;;;;;5.95;3.20;;;;;;;16.04;79.62;96600.41;5063235;28;20377;-74
2022/12/10 07:18:05;;;;;;;17.42;2.65;;;;;;;16.18;78.16;96592.63;5072169;28;20393;-74
2022/12/10 07:20:31;;;;;;;5.70;2.60;;;;;;;16.18;78.35;96584.53;5073098;28;20168;-74
2022/12/10 07:22:56;;;;;;;11.93;5.70;;;;;;;16.14;79.10;96585.03;5072240;28;20103;-74
2022/12/10 07:25:22;;;;;;;7.45;2.80;;;;;;;16.17;78.67;96582.00;5073115;28;20025;-75
2022/12/10 07:27:47;;;;;;;8.05;3.42;;;;;;;16.21;78.53;96589.63;5071715;28;20510;-74
2022/12/10 07:30:13;;;;;;;6.88;3.28;;;;;;;16.16;78.88;96580.31;5071791;28;20024;-73
2022/12/10 07:32:38;;;;;;;7.03;3.20;;;;;;;16.21;78.85;96586.94;5062602;28;20135;-74
2022/12/10 07:35:04;;;;;;;8.20;4.13;;;;;;;16.15;79.35;96581.34;5049233;28;20035;-74
2022/12/10 07:37:30;;;;;;;6.25;3.70;;;;;;;16.22;78.98;96579.69;5071555;28;20411;-75
2022/12/10 07:39:56;;;;;;;13.15;2.22;;;;;;;16.18;79.61;96578.31;5071788;28;20027;-74
2022/12/10 07:42:21;;;;;;;6.85;2.22;;;;;;;16.18;79.72;96581.03;5053711;28;20035;-74
2022/12/10 07:44:48;;;;;;;34.08;3.25;;;;;;;16.13;80.25;96576.06;5051576;28;20025;-75
2022/12/10 07:47:14;;;;;;;6.82;3.22;;;;;;;16.00;81.12;96562.09;5052825;28;20029;-74
2022/12/10 07:49:39;;;;;;;9.55;3.08;;;;;;;16.08;80.93;96577.53;5054447;28;20468;-74
2022/12/10 07:52:05;;;;;;;6.88;3.20;;;;;;;16.07;81.02;96583.91;5071783;28;20472;-74
2022/12/10 07:54:30;;;;;;;6.07;2.05;;;;;;;16.13;80.84;96586.88;5071440;28;20107;-75
2022/12/10 07:56:56;;;;;;;8.52;3.22;;;;;;;16.11;80.73;96586.19;5072624;28;20468;-76
2022/12/10 07:59:21;;;;;;;10.25;4.03;;;;;;;16.15;81.22;96576.75;5072418;28;20020;-75
2022/12/10 08:01:49;;;;;;;11.35;2.70;;;;;;;16.20;80.33;96569.06;5068095;28;20035;-74
2022/12/10 08:04:14;;;;;;;11.98;4.28;;;;;;;16.18;81.42;96559.44;5052604;28;20037;-74
2022/12/10 08:06:40;;;;;;;15.98;5.78;;;;;;;16.18;81.29;96565.66;5052551;28;20550;-75
2022/12/10 08:09:06;;;;;;;27.83;6.22;;;;;;;16.14;81.48;96552.66;5051203;28;20029;-75
2022/12/10 08:11:32;;;;;;;7.60;3.55;;;;;;;16.21;81.13;96548.34;5059192;28;20052;-75
2022/12/10 08:13:58;;;;;;;8.55;3.75;;;;;;;16.23;81.41;96540.94;5063137;28;20060;-75
2022/12/10 08:16:26;;;;;;;13.85;4.85;;;;;;;16.25;80.91;96534.38;5070655;28;20430;-73
2022/12/10 08:18:52;;;;;;;7.80;3.38;;;;;;;16.22;81.14;96528.44;5070969;28;20454;-75
2022/12/10 08:21:20;;;;;;;6.22;2.08;;;;;;;16.26;80.56;96541.47;5071125;28;20028;-74
2022/12/10 08:23:46;;;;;;;14.88;3.42;;;;;;;16.40;79.98;96539.19;5071723;28;20032;-75
2022/12/10 08:26:17;;;;;;;5.65;2.70;;;;;;;16.36;80.53;96533.28;5058516;28;20032;-75
2022/12/10 08:28:43;;;;;;;9.93;3.17;;;;;;;16.37;80.48;96532.28;5050534;28;20036;-74
2022/12/10 08:31:11;;;;;;;4.18;2.15;;;;;;;16.37;81.06;96556.56;5064009;28;20384;-74
2022/12/10 08:33:37;;;;;;;5.45;2.13;;;;;;;16.45;80.48;96540.47;5069504;28;20051;-74
2022/12/10 08:36:04;;;;;;;9.05;3.05;;;;;;;16.35;81.58;96547.78;5062483;28;20114;-75
2022/12/10 08:38:30;;;;;;;8.48;3.88;;;;;;;16.43;81.04;96547.84;5070145;28;20051;-74
2022/12/10 08:40:56;;;;;;;5.97;2.03;;;;;;;16.52;80.49;96548.78;5033611;28;20040;-75
2022/12/10 08:43:21;;;;;;;1.33;1.20;;;;;;;16.59;79.20;96547.16;5051843;28;20017;-74
2022/12/10 08:45:47;;;;;;;5.60;2.25;;;;;;;16.72;78.62;96556.56;5059641;28;20105;-74
2022/12/10 08:48:12;;;;;;;5.30;2.25;;;;;;;16.76;78.77;96532.81;5070194;28;20569;-75
2022/12/10 08:50:38;;;;;;;7.90;4.18;;;;;;;16.73;79.02;96538.50;5069293;28;20109;-74
2022/12/10 08:53:03;;;;;;;3.28;2.42;;;;;;;16.82;77.70;96525.91;5061379;28;20101;-75
2022/12/10 08:55:29;;;;;;;6.53;3.10;;;;;;;16.93;77.11;96514.84;5070371;28;20085;-75
2022/12/10 08:57:56;;;;;;;5.35;3.38;;;;;;;17.18;75.86;96516.69;5033704;28;20110;-73
2022/12/10 09:00:22;;;;;;;17.08;5.70;;;;;;;17.37;74.93;96516.44;5061665;28;20378;-74
2022/12/10 09:02:48;;;;;;;9.82;3.00;;;;;;;17.60;73.27;96511.31;5051565;28;20021;-74
2022/12/10 09:05:13;;;;;;;8.23;2.70;;;;;;;17.79;71.93;96500.22;5058478;28;20036;-74
2022/12/10 09:07:39;;;;;;;8.63;3.70;;;;;;;18.00;71.10;96505.16;5064793;28;20028;-74
2022/12/10 09:10:05;;;;;;;8.52;2.03;;;;;;;17.80;70.91;96473.00;5069464;28;20397;-75
2022/12/10 09:12:33;;;;;;;5.80;3.45;;;;;;;17.87;70.18;96476.72;5062378;28;20029;-75
2022/12/10 09:14:58;;;;;;;5.22;2.22;;;;;;;17.91;70.04;96465.56;5052672;28;20116;-73
2022/12/10 09:17:24;;;;;;;15.10;2.83;;;;;;;17.76;70.23;96451.84;5055078;28;20127;-76
2022/12/10 09:19:50;;;;;;;11.13;2.38;;;;;;;17.54;71.63;96447.88;5062373;28;20037;-74
2022/12/10 09:22:15;;;;;;;5.20;2.30;;;;;;;17.49;73.21;96447.53;5050905;28;20499;-74
2022/12/10 09:24:41;;;;;;;3.90;2.72;;;;;;;17.64;72.25;96445.06;5065689;28;20072;-75
2022/12/10 09:27:06;;;;;;;8.07;2.50;;;;;;;17.56;72.05;96440.50;5070844;28;20407;-75
2022/12/10 09:29:32;;;;;;;48.08;4.35;;;;;;;17.62;71.83;96428.16;5070998;28;20032;-75
2022/12/10 09:31:57;;;;;;;6.47;3.15;;;;;;;17.65;72.41;96426.00;5070975;28;20028;-75
2022/12/10 09:34:23;;;;;;;6.50;3.15;;;;;;;17.60;72.21;96416.66;5067435;28;20029;-75
2022/12/10 09:36:48;;;;;;;9.95;5.13;;;;;;;17.66;72.49;96419.53;5051079;28;20036;-74
2022/12/10 09:39:14;;;;;;;14.07;5.97;;;;;;;17.70;72.37;96401.97;5061415;28;20029;-75
2022/12/10 09:42:17;;;;;;;12.88;5.15;;;;;;;17.83;71.33;96398.78;5053252;28;20403;-75
2022/12/10 09:45:11;;;;;;;12.75;5.88;;;;;;;18.20;70.24;96404.53;5059127;28;20055;-74
2022/12/10 09:48:05;;;;;;;9.98;4.47;;;;;;;18.40;68.63;96386.91;5062612;28;20047;-75
2022/12/10 09:50:56;;;;;;;96.20;41.00;;;;;;;19.97;62.61;96411.19;5069517;28;20066;-74
2022/12/10 09:53:22;;;;;;;40.55;21.52;;;;;;;20.51;60.11;96392.94;5070628;28;20399;-73
2022/12/10 09:55:49;;;;;;;18.83;4.70;;;;;;;20.34;59.85;96379.69;5070076;28;20024;-75
2022/12/10 09:58:24;;;;;;;9.32;4.88;;;;;;;20.60;59.02;96376.56;5068052;28;20134;-75
2022/12/10 10:00:59;;;;;;;7.20;3.53;;;;;;;20.50;58.14;96363.22;5032793;28;20028;-75
2022/12/10 10:03:25;;;;;;;5.50;2.10;;;;;;;21.37;56.14;96381.44;5049219;28;20035;-75
2022/12/10 10:05:52;;;;;;;3.10;2.30;;;;;;;22.08;54.52;96366.97;5056886;28;20020;-73
2022/12/10 10:08:31;;;;;;;9.95;3.65;;;;;;;22.26;53.29;96341.13;5059274;28;20090;-74
2022/12/10 10:10:58;;;;;;;6.25;2.50;;;;;;;22.48;52.85;96340.91;5056336;28;20472;-73
2022/12/10 10:13:38;;;;;;;8.80;4.53;;;;;;;23.42;50.21;96344.84;5069204;28;20051;-74
2022/12/10 10:16:27;;;;;;;7.18;2.42;;;;;;;23.76;48.90;96332.97;5070681;28;20044;-74
2022/12/10 10:19:01;;;;;;;4.45;2.17;;;;;;;23.13;49.93;96310.47;5069294;28;20450;-74
2022/12/10 10:21:30;;;;;;;17.13;3.05;;;;;;;23.45;48.85;96311.69;5052385;28;20066;-74
2022/12/10 10:23:56;;;;;;;11.77;5.07;;;;;;;22.80;50.27;96284.91;5070965;28;20103;-73
2022/12/10 10:26:25;;;;;;;8.82;3.88;;;;;;;22.02;51.98;96269.72;5072890;28;20020;-73
2022/12/10 10:29:04;;;;;;;6.45;3.55;;;;;;;21.97;52.54;96288.50;5056289;28;20020;-76
2022/12/10 10:31:32;;;;;;;8.68;3.72;;;;;;;21.86;52.61;96274.56;5072946;28;20035;-75
2022/12/10 10:34:01;;;;;;;11.48;2.95;;;;;;;21.68;53.22;96266.84;5064454;28;20070;-75
2022/12/10 10:36:32;;;;;;;6.65;3.95;;;;;;;21.86;52.83;96263.66;5054224;28;20082;-76
2022/12/10 10:39:11;;;;;;;18.63;4.57;;;;;;;21.92;52.66;96263.75;5053073;28;20041;-75
2022/12/10 10:41:39;;;;;;;5.07;2.00;;;;;;;22.08;51.97;96251.72;5064147;28;20017;-74
2022/12/10 10:44:18;;;;;;;6.53;3.05;;;;;;;22.79;50.52;96266.91;5072752;28;20541;-74
2022/12/10 10:46:48;;;;;;;5.80;3.03;;;;;;;22.20;51.43;96254.75;5055994;28;20031;-75
2022/12/10 10:49:19;;;;;;;6.93;2.80;;;;;;;22.39;51.18;96260.34;5064301;28;20452;-74
2022/12/10 10:51:48;;;;;;;4.72;2.35;;;;;;;21.96;51.55;96232.38;5066228;28;20518;-75
2022/12/10 10:54:48;;;;;;;7.03;2.45;;;;;;;21.54;52.92;96237.81;5073767;28;20463;-75
2022/12/10 10:57:29;;;;;;;5.55;3.20;;;;;;;21.41;54.08;96232.28;5072685;28;20089;-73
2022/12/10 11:00:00;;;;;;;5.78;2.95;;;;;;;21.42;53.92;96236.66;5045962;28;20051;-74
2022/12/10 11:02:36;;;;;;;26.77;3.17;;;;;;;21.03;54.09;96224.31;5035459;28;20028;-75
2022/12/10 11:05:07;;;;;;;6.70;2.90;;;;;;;20.33;55.62;96209.63;5052564;28;20024;-75
2022/12/10 11:07:36;;;;;;;5.13;3.15;;;;;;;19.59;58.24;96208.66;5053404;28;20024;-75
2022/12/10 11:10:04;;;;;;;10.93;4.72;;;;;;;19.15;60.10;96203.06;5052398;28;20025;-75
2022/12/10 11:12:34;;;;;;;7.22;3.20;;;;;;;19.06;60.93;96214.13;5069943;28;20058;-74
2022/12/10 11:15:00;;;;;;;10.23;4.35;;;;;;;18.91;61.79;96216.78;5073370;28;20016;-74
2022/12/10 11:17:27;;;;;;;326.15;18.45;;;;;;;18.85;61.99;96217.50;5062935;28;20045;-74
2022/12/10 11:20:13;;;;;;;12.07;5.95;;;;;;;18.97;62.43;96220.63;5039991;28;20400;-74
2022/12/10 11:22:49;;;;;;;6.80;3.65;;;;;;;19.12;62.52;96208.84;5055053;28;20039;-74
2022/12/10 11:25:14;;;;;;;7.50;3.63;;;;;;;19.25;62.09;96213.66;5064818;28;20035;-74
2022/12/10 11:28:12;;;;;;;5.10;2.67;;;;;;;19.10;62.42;96212.75;5053314;28;20036;-74
2022/12/10 11:30:43;;;;;;;6.65;3.75;;;;;;;19.01;62.68;96206.53;5031617;28;20049;-74
2022/12/10 11:33:24;;;;;;;5.68;3.45;;;;;;;19.10;62.80;96212.75;5051810;28;20108;-74
2022/12/10 11:36:02;;;;;;;7.28;4.63;;;;;;;19.02;62.63;96201.97;5062858;28;20032;-75
2022/12/10 11:38:40;;;;;;;6.13;2.70;;;;;;;19.35;61.20;96196.09;5071560;28;20025;-74
2022/12/10 11:41:27;;;;;;;8.82;3.92;;;;;;;19.41;60.41;96192.69;5058352;28;20029;-74
2022/12/10 11:44:07;;;;;;;6.28;3.58;;;;;;;19.79;59.34;96190.81;5069531;28;20542;-73
2022/12/10 11:47:08;;;;;;;6.85;3.35;;;;;;;20.19;57.59;96203.09;5052665;28;20032;-74